Time;durP1;ratioP1;P1;durP2;ratioP2;P2;SDS_P1;SDS_P2;PMS_P1;PMS_P2;Temp;Humidity;BMP_temperature;BMP_pressure;BME280_temperature;BME280_humidity;BME280_pressure;Samples;Min_cycle;Max_cycle;Signal;HPM_P1;HPM_P2
2023/10/23 00:01:03;;;;;;;11.87;3.83;;;;;;;12.85;74.38;100383.97;5031260;28;20289;-68
2023/10/23 00:03:32;;;;;;;9.33;3.53;;;;;;;12.89;74.00;100377.31;5032751;28;20570;-68
2023/10/23 00:06:01;;;;;;;7.67;3.10;;;;;;;12.92;73.93;100379.66;5026286;28;20206;-69
2023/10/23 00:08:29;;;;;;;11.63;3.30;;;;;;;12.91;73.85;100375.34;5026148;28;20207;-69
2023/10/23 00:11:04;;;;;;;10.53;3.23;;;;;;;12.94;73.31;100385.63;5029910;28;20206;-69
2023/10/23 00:14:09;;;;;;;9.00;3.47;;;;;;;12.92;73.46;100385.00;5032627;28;20539;-72
2023/10/23 00:16:39;;;;;;;11.53;3.20;;;;;;;12.92;73.40;100392.97;5028051;28;20208;-68
2023/10/23 00:19:27;;;;;;;7.70;3.27;;;;;;;12.90;73.50;100394.97;5016527;28;20231;-68
2023/10/23 00:22:15;;;;;;;11.83;3.37;;;;;;;12.81;74.02;100393.28;5026692;28;20206;-69
2023/10/23 00:24:45;;;;;;;8.63;3.20;;;;;;;12.64;74.81;100389.78;5011228;28;20722;-69
2023/10/23 00:27:13;;;;;;;9.83;3.10;;;;;;;12.57;75.44;100388.75;5015017;28;20298;-68
2023/10/23 00:29:42;;;;;;;10.53;2.90;;;;;;;12.56;75.56;100397.72;5033487;28;20286;-68
2023/10/23 00:32:12;;;;;;;8.47;3.30;;;;;;;12.62;75.23;100402.38;5027279;28;20198;-68
2023/10/23 00:34:49;;;;;;;9.60;3.00;;;;;;;12.70;74.58;100397.09;5036666;28;20575;-68
2023/10/23 00:37:31;;;;;;;11.40;3.53;;;;;;;12.73;74.30;100393.28;5025473;28;20667;-69
2023/10/23 00:40:06;;;;;;;8.33;2.87;;;;;;;12.64;74.50;100389.78;5036999;28;20233;-68
2023/10/23 00:46:00;;;;;;;6.67;2.43;;;;;;;12.44;75.49;100407.84;5016409;28;20620;-68
2023/10/23 00:48:35;;;;;;;10.20;2.97;;;;;;;12.47;75.68;100398.72;5031182;28;20201;-68
2023/10/23 00:51:06;;;;;;;11.57;3.13;;;;;;;12.53;75.40;100397.22;5036661;28;20200;-70
2023/10/23 00:53:38;;;;;;;9.20;3.00;;;;;;;12.58;74.74;100400.19;5023826;28;20197;-70
2023/10/23 00:56:14;;;;;;;11.00;3.97;;;;;;;12.62;74.06;100396.25;5036387;28;20685;-68
2023/10/23 00:58:43;;;;;;;12.43;3.20;;;;;;;12.62;74.12;100396.25;5025571;28;20211;-69
2023/10/23 01:01:12;;;;;;;7.90;3.07;;;;;;;12.57;73.98;100386.09;5034932;28;20251;-68
2023/10/23 01:03:44;;;;;;;7.87;3.20;;;;;;;12.49;73.64;100390.56;5035804;28;20232;-69
2023/10/23 01:06:13;;;;;;;9.20;2.70;;;;;;;12.49;73.45;100386.06;5036269;28;20198;-69
2023/10/23 01:08:43;;;;;;;8.87;3.23;;;;;;;12.49;73.42;100390.56;5035972;28;20598;-69
2023/10/23 01:11:22;;;;;;;;;;;;;;;;;;;;;
2023/10/23 01:13:51;;;;;;;8.40;2.90;;;;;;;12.55;73.48;100381.94;5025631;28;20200;-68
2023/10/23 01:16:33;;;;;;;10.37;3.40;;;;;;;12.54;73.51;100377.59;5013002;28;20221;-71
2023/10/23 01:19:22;;;;;;;7.43;3.00;;;;;;;12.52;73.61;100380.41;5031846;28;20199;-69
2023/10/23 01:21:52;;;;;;;8.87;2.87;;;;;;;12.52;73.68;100379.59;5018435;28;20249;-68
2023/10/23 01:24:27;;;;;;;12.93;2.97;;;;;;;12.50;73.67;100381.56;5035793;28;20230;-68
2023/10/23 01:26:57;;;;;;;6.20;2.93;;;;;;;12.40;74.18;100382.53;5026599;28;20212;-69
2023/10/23 01:29:36;;;;;;;6.57;2.70;;;;;;;12.22;74.94;100379.19;5036056;28;20197;-70
2023/10/23 01:32:11;;;;;;;7.97;2.67;;;;;;;12.10;75.62;100396.41;5035063;28;20211;-69
2023/10/23 01:34:42;;;;;;;8.40;2.37;;;;;;;12.13;75.30;100396.09;5027256;28;20227;-69
2023/10/23 01:37:10;;;;;;;7.03;2.63;;;;;;;12.15;75.42;100396.75;5016371;28;20197;-69
2023/10/23 01:39:41;;;;;;;6.00;2.63;;;;;;;12.22;74.95;100400.47;5024403;28;20208;-68
2023/10/23 01:42:19;;;;;;;10.97;3.07;;;;;;;12.29;74.48;100390.84;5035851;28;20224;-69
2023/10/23 01:45:00;;;;;;;9.03;2.70;;;;;;;12.32;74.36;100389.66;5035701;28;20236;-68
2023/10/23 01:47:31;;;;;;;6.60;2.40;;;;;;;12.32;74.73;100385.19;5035953;28;20207;-68
2023/10/23 01:56:58;;;;;;;9.20;3.50;;;;;;;12.24;73.68;100393.13;5022260;28;20219;-69
2023/10/23 01:59:28;;;;;;;6.70;2.60;;;;;;;12.23;73.70;100385.31;5035771;28;20287;-69
2023/10/23 02:01:57;;;;;;;7.37;2.50;;;;;;;12.24;73.55;100384.31;5033125;28;20205;-68
2023/10/23 02:04:29;;;;;;;7.37;2.60;;;;;;;12.23;73.72;100380.81;5035130;28;20235;-68
2023/10/23 02:07:13;;;;;;;7.73;2.23;;;;;;;12.25;73.46;100384.16;5026872;28;20201;-69
2023/10/23 02:09:44;;;;;;;10.73;3.07;;;;;;;12.06;74.29;100392.38;5032310;28;20224;-69
2023/10/23 02:12:13;;;;;;;8.23;2.80;;;;;;;11.96;74.38;100394.38;5028816;28;20220;-68
2023/10/23 02:18:27;;;;;;;8.77;3.30;;;;;;;12.02;74.55;100394.56;5027929;28;20199;-68
2023/10/23 02:20:59;;;;;;;10.20;2.27;;;;;;;12.09;73.99;100394.75;5032622;28;20557;-68
2023/10/23 02:23:27;;;;;;;6.57;2.33;;;;;;;12.04;74.13;100391.75;5026341;28;20203;-69
2023/10/23 02:26:02;;;;;;;11.53;2.80;;;;;;;12.04;74.18;100381.94;5032824;28;20222;-68
2023/10/23 02:28:31;;;;;;;7.40;2.33;;;;;;;12.01;73.90;100390.22;5030235;28;20280;-69
2023/10/23 02:31:03;;;;;;;8.27;2.73;;;;;;;12.03;73.64;100392.72;5031612;28;20236;-71
2023/10/23 02:33:47;;;;;;;6.40;2.33;;;;;;;12.04;73.60;100394.41;5032902;28;20194;-68
2023/10/23 02:36:19;;;;;;;7.50;2.30;;;;;;;11.99;73.38;100396.69;5033732;28;20215;-68
2023/10/23 02:38:48;;;;;;;5.87;1.87;;;;;;;11.98;73.61;100387.03;5028966;28;20204;-69
2023/10/23 02:41:24;;;;;;;7.53;2.67;;;;;;;12.01;73.20;100392.03;5027444;28;20194;-70
2023/10/23 02:43:52;;;;;;;6.73;2.20;;;;;;;12.10;72.87;100391.09;5032610;28;20193;-68
2023/10/23 02:46:22;;;;;;;10.60;2.97;;;;;;;12.01;72.63;100392.88;5029683;28;20211;-69
2023/10/23 02:48:52;;;;;;;8.17;2.60;;;;;;;11.79;73.60;100388.09;5022593;28;20251;-69
2023/10/23 02:52:12;;;;;;;8.00;2.60;;;;;;;11.75;74.23;100396.56;5032239;28;20196;-68
2023/10/23 02:54:43;;;;;;;12.80;2.70;;;;;;;11.79;73.63;100401.38;5029285;28;20211;-69
2023/10/23 02:57:12;;;;;;;8.20;2.87;;;;;;;11.75;73.84;100396.56;5034112;28;20213;-69
2023/10/23 02:59:46;;;;;;;11.70;2.83;;;;;;;11.68;74.53;100399.81;5029512;28;20223;-72
2023/10/23 03:02:16;;;;;;;9.03;2.90;;;;;;;11.68;74.50;100394.50;5031943;28;20738;-69
2023/10/23 03:04:44;;;;;;;7.30;2.97;;;;;;;11.72;74.51;100391.50;5027542;28;20251;-71
2023/10/23 03:07:13;;;;;;;6.27;2.80;;;;;;;11.77;74.07;100392.75;5027679;28;20288;-74
2023/10/23 03:09:41;;;;;;;8.10;2.97;;;;;;;11.80;73.87;100392.44;5027243;28;20304;-69
2023/10/23 03:12:09;;;;;;;9.60;2.80;;;;;;;11.83;73.55;100393.94;5027983;28;20240;-71
2023/10/23 03:14:37;;;;;;;10.27;2.97;;;;;;;11.85;73.66;100390.16;5027792;28;20283;-69
2023/10/23 03:17:05;;;;;;;8.87;3.80;;;;;;;11.85;73.58;100390.16;5027818;28;20551;-72
2023/10/23 03:19:34;;;;;;;11.53;3.67;;;;;;;11.93;73.46;100394.66;5025544;28;20216;-68
2023/10/23 03:22:02;;;;;;;8.20;2.60;;;;;;;11.95;73.21;100398.84;5027433;28;20208;-72
2023/10/23 03:24:30;;;;;;;5.97;2.50;;;;;;;11.90;72.98;100390.50;5024569;28;20240;-72
2023/10/23 03:26:58;;;;;;;6.73;2.70;;;;;;;11.82;73.15;100392.28;5028028;28;20208;-71
2023/10/23 03:29:26;;;;;;;8.33;2.97;;;;;;;11.80;73.23;100392.44;5028198;28;20256;-68
2023/10/23 03:31:54;;;;;;;9.57;3.10;;;;;;;11.72;73.03;100396.81;5029113;28;20566;-70
2023/10/23 03:34:24;;;;;;;7.17;2.80;;;;;;;11.65;73.83;100408.09;5028999;28;20205;-70
2023/10/23 03:36:54;;;;;;;7.40;2.80;;;;;;;11.59;74.84;100415.84;5028409;28;20200;-70
2023/10/23 03:39:22;;;;;;;12.90;3.00;;;;;;;11.52;75.15;100412.97;5029378;28;20721;-70
2023/10/23 03:41:50;;;;;;;9.57;3.13;;;;;;;11.47;75.33;100414.44;5024483;28;20578;-70
2023/10/23 03:44:18;;;;;;;5.50;3.23;;;;;;;11.48;75.22;100418.75;5028853;28;20196;-69
2023/10/23 03:46:45;;;;;;;9.10;2.80;;;;;;;11.33;75.40;100418.50;5029027;28;20274;-69
2023/10/23 03:49:31;;;;;;;8.47;3.50;;;;;;;11.33;75.59;100407.88;5031365;28;20618;-68
2023/10/23 03:56:26;;;;;;;6.80;2.83;;;;;;;11.19;76.00;100411.91;4954131;29;20271;-68
2023/10/23 04:06:58;;;;;;;9.40;3.20;;;;;;;11.30;74.96;100418.78;4915531;29;20243;-69
2023/10/23 04:09:30;;;;;;;12.70;3.27;;;;;;;11.18;75.84;100410.22;5000032;28;20215;-69
2023/10/23 04:19:56;;;;;;;10.77;3.47;;;;;;;11.29;74.78;100411.81;4991476;28;20198;-69
2023/10/23 04:33:41;;;;;;;13.40;3.47;;;;;;;11.34;73.45;100393.63;4896035;29;20625;-68
2023/10/23 04:39:43;;;;;;;9.00;3.13;;;;;;;11.28;72.33;100396.88;4994600;28;20236;-69
2023/10/23 04:55:49;;;;;;;12.10;4.00;;;;;;;11.18;73.04;100399.59;1045339;26;20660;-69
2023/10/23 04:58:21;;;;;;;10.10;4.13;;;;;;;11.17;73.08;100397.13;5008498;28;20213;-69
2023/10/23 05:01:40;;;;;;;10.40;4.30;;;;;;;11.19;73.36;100395.13;4933669;29;20651;-68
2023/10/23 05:07:51;;;;;;;14.90;5.63;;;;;;;11.20;72.90;100387.03;4933633;29;20234;-68
2023/10/23 05:10:21;;;;;;;11.13;5.13;;;;;;;11.15;72.78;100389.31;4925268;29;20208;-68
2023/10/23 06:37:04;;;;;;;7.17;3.40;;;;;;;10.82;73.20;100397.94;5012119;28;20242;-67
2023/10/23 06:50:30;;;;;;;17.17;6.00;;;;;;;11.05;74.43;100401.00;5003506;28;20836;-67
2023/10/23 07:03:39;;;;;;;11.87;5.17;;;;;;;11.14;76.92;100392.97;5001227;28;20664;-68
2023/10/23 09:11:35;;;;;;;13.27;7.57;;;;;;;12.19;79.60;100318.34;4950918;28;20217;-69
2023/10/23 09:40:01;;;;;;;15.33;9.47;;;;;;;12.70;79.04;100321.75;4998860;28;20245;-69
2023/10/23 10:00:15;;;;;;;29.57;16.70;;;;;;;13.02;79.33;100319.09;4998507;28;20205;-69
2023/10/23 18:00:29;;;;;;;17.80;6.87;;;;;;;14.58;96.84;99838.16;4998635;28;20332;-69
